Time;durP1;ratioP1;P1;durP2;ratioP2;P2;SDS_P1;SDS_P2;PMS_P1;PMS_P2;Temp;Humidity;BMP_temperature;BMP_pressure;BME280_temperature;BME280_humidity;BME280_pressure;Samples;Min_cycle;Max_cycle;Signal;HPM_P1;HPM_P2
2022/11/02 00:00:38;;;;;;;11.47;3.00;;;;;5.80;94644.00;;;;7399736;19;20496;-79
2022/11/02 00:03:12;;;;;;;13.73;2.70;;;;;5.80;94636.00;;;;7399520;19;20148;-81
2022/11/02 00:05:41;;;;;;;14.13;3.20;;;;;5.70;94640.00;;;;7401806;19;20148;-80
2022/11/02 00:08:09;;;;;;;9.13;2.67;;;;;5.80;94636.00;;;;7403586;19;20626;-80
2022/11/02 00:10:50;;;;;;;10.67;2.80;;;;;5.90;94639.00;;;;7396926;19;20232;-80
2022/11/02 00:13:18;;;;;;;14.87;3.17;;;;;6.00;94641.00;;;;7399806;19;20156;-82
2022/11/02 00:15:52;;;;;;;17.07;3.27;;;;;5.90;94644.00;;;;7402599;19;20129;-81
2022/11/02 00:18:21;;;;;;;7.83;3.33;;;;;6.00;94651.00;;;;7399026;19;20188;-79
2022/11/02 00:20:48;;;;;;;9.03;2.80;;;;;5.90;94632.00;;;;7397400;19;20156;-80
2022/11/02 00:23:24;;;;;;;7.30;3.03;;;;;5.90;94637.00;;;;7400371;19;20176;-80
2022/11/02 00:25:54;;;;;;;15.47;3.20;;;;;5.90;94631.00;;;;7400396;19;20216;-80
2022/11/02 00:28:21;;;;;;;8.20;2.60;;;;;5.90;94641.00;;;;7397184;19;20497;-80
2022/11/02 00:30:57;;;;;;;11.70;2.93;;;;;5.80;94644.00;;;;7399239;19;20163;-78
2022/11/02 00:33:24;;;;;;;7.90;2.70;;;;;5.90;94647.00;;;;7401920;19;20887;-81
2022/11/02 00:35:54;;;;;;;7.53;2.73;;;;;6.10;94648.00;;;;7399684;19;20144;-80
2022/11/02 00:38:30;;;;;;;10.27;2.93;;;;;6.10;94646.00;;;;7400711;19;20136;-80
2022/11/02 00:40:59;;;;;;;6.87;2.30;;;;;6.00;94655.00;;;;7402209;19;20136;-80
2022/11/02 00:43:26;;;;;;;11.97;2.70;;;;;6.10;94649.00;;;;7398108;19;20145;-79
2022/11/02 00:46:00;;;;;;;7.07;2.53;;;;;6.00;94655.00;;;;7400785;19;20522;-80
2022/11/02 00:48:27;;;;;;;16.20;2.63;;;;;6.10;94658.00;;;;7396605;19;20133;-80
2022/11/02 00:50:55;;;;;;;13.53;2.70;;;;;6.10;94653.00;;;;7399126;19;20224;-81
2022/11/02 00:53:29;;;;;;;8.60;2.50;;;;;6.10;94653.00;;;;7402009;19;20145;-79
2022/11/02 00:55:56;;;;;;;11.20;2.43;;;;;6.30;94660.00;;;;7398876;19;20160;-81
2022/11/02 00:58:23;;;;;;;14.90;2.90;;;;;6.50;94661.00;;;;7396189;19;20140;-79
2022/11/02 01:01:04;;;;;;;12.47;2.93;;;;;6.70;94669.00;;;;7400841;19;20476;-81
2022/11/02 01:03:31;;;;;;;13.00;2.37;;;;;6.70;94667.00;;;;7397854;19;20151;-82
2022/11/02 01:06:14;;;;;;;19.70;2.93;;;;;6.60;94665.00;;;;7399346;19;20155;-78
2022/11/02 01:08:42;;;;;;;14.03;2.43;;;;;6.60;94665.00;;;;7398642;19;20124;-81
2022/11/02 01:11:27;;;;;;;9.07;2.30;;;;;6.50;94656.00;;;;7396550;19;20661;-81
2022/11/02 01:14:04;;;;;;;8.30;2.50;;;;;6.40;94671.00;;;;7397227;19;20136;-83
2022/11/02 01:16:40;;;;;;;14.13;2.33;;;;;6.30;94653.00;;;;7397596;19;20131;-83
2022/11/02 01:19:09;;;;;;;11.07;2.70;;;;;6.30;94659.00;;;;7397363;19;20600;-82
2022/11/02 01:21:39;;;;;;;10.13;2.60;;;;;6.30;94663.00;;;;7397058;19;20137;-82
2022/11/02 01:24:15;;;;;;;15.03;2.40;;;;;6.40;94660.00;;;;7396629;19;20137;-81
2022/11/02 01:26:44;;;;;;;17.10;2.70;;;;;6.80;94650.00;;;;7398789;19;20602;-82
2022/11/02 01:29:12;;;;;;;15.17;2.53;;;;;6.80;94651.00;;;;7394802;19;20531;-81
2022/11/02 01:31:47;;;;;;;17.00;2.77;;;;;6.90;94650.00;;;;7397968;19;20140;-79
2022/11/02 01:34:15;;;;;;;15.57;2.90;;;;;6.80;94652.00;;;;7395800;19;20283;-80
2022/11/02 01:36:45;;;;;;;12.77;2.10;;;;;6.70;94647.00;;;;7395140;19;20853;-81
2022/11/02 01:39:19;;;;;;;16.00;2.73;;;;;6.70;94644.00;;;;7397613;19;20152;-82
2022/11/02 01:41:52;;;;;;;11.07;2.60;;;;;6.70;94643.00;;;;7397173;19;20148;-81
2022/11/02 01:44:33;;;;;;;8.53;2.30;;;;;6.70;94640.00;;;;7392911;19;20137;-81
2022/11/02 01:47:19;;;;;;;11.87;2.77;;;;;6.60;94630.00;;;;7393829;19;20596;-80
2022/11/02 01:49:50;;;;;;;6.63;2.27;;;;;6.50;94624.00;;;;7396849;19;20600;-79
2022/11/02 01:52:33;;;;;;;13.57;2.30;;;;;6.50;94626.00;;;;7395138;19;20208;-81
2022/11/02 01:55:28;;;;;;;8.57;2.80;;;;;6.40;94627.00;;;;7394963;19;20167;-81
2022/11/02 01:58:06;;;;;;;14.00;2.83;;;;;6.40;94616.00;;;;7397258;19;20163;-81
2022/11/02 02:00:36;;;;;;;12.40;2.90;;;;;6.40;94613.00;;;;7395337;19;20137;-76
2022/11/02 02:03:16;;;;;;;9.53;2.70;;;;;6.40;94623.00;;;;7393672;19;20163;-74
2022/11/02 02:05:55;;;;;;;9.17;2.77;;;;;6.40;94608.00;;;;7393101;19;20133;-75
2022/11/02 02:08:30;;;;;;;8.23;2.40;;;;;6.30;94607.00;;;;7390978;19;20148;-75
2022/11/02 02:11:05;;;;;;;9.83;2.10;;;;;6.30;94598.00;;;;7391937;19;20172;-75
2022/11/02 02:13:39;;;;;;;11.47;2.20;;;;;6.30;94612.00;;;;7394260;19;20619;-75
2022/11/02 02:16:27;;;;;;;11.93;2.37;;;;;6.20;94604.00;;;;7394404;19;20222;-74
2022/11/02 02:19:14;;;;;;;11.97;2.50;;;;;6.20;94595.00;;;;7392389;19;20240;-75
2022/11/02 02:21:45;;;;;;;14.03;2.27;;;;;6.20;94596.00;;;;7394799;19;20531;-75
2022/11/02 02:24:45;;;;;;;8.97;2.50;;;;;6.10;94600.00;;;;7390772;19;20165;-75
2022/11/02 02:27:26;;;;;;;14.00;2.50;;;;;6.10;94595.00;;;;7392871;19;20141;-75
2022/11/02 02:30:03;;;;;;;13.07;2.63;;;;;6.20;94596.00;;;;7393082;19;20133;-75
2022/11/02 02:33:00;;;;;;;13.33;2.93;;;;;6.20;94599.00;;;;7390468;19;20211;-75
2022/11/02 02:35:57;;;;;;;9.67;3.07;;;;;6.00;94596.00;;;;7392298;19;20136;-75
2022/11/02 02:38:27;;;;;;;19.53;3.30;;;;;5.90;94592.00;;;;7392238;19;20117;-74
2022/11/02 02:41:13;;;;;;;16.17;3.00;;;;;6.00;94589.00;;;;7394292;19;20212;-75
2022/11/02 02:43:47;;;;;;;10.97;2.33;;;;;6.00;94586.00;;;;7391055;19;20745;-75
2022/11/02 02:46:57;;;;;;;11.87;2.37;;;;;6.00;94584.00;;;;7391613;19;20149;-75
2022/11/02 02:49:34;;;;;;;13.23;2.83;;;;;6.10;94593.00;;;;7401295;19;20619;-74
2022/11/02 02:52:10;;;;;;;15.60;2.40;;;;;6.20;94582.00;;;;7402767;19;20140;-74
2022/11/02 02:54:44;;;;;;;12.53;2.97;;;;;6.20;94580.00;;;;7399613;19;20133;-74
2022/11/02 02:57:21;;;;;;;10.13;2.37;;;;;6.30;94590.00;;;;7402233;19;20782;-74
2022/11/02 02:59:48;;;;;;;11.93;2.30;;;;;6.40;94587.00;;;;7401415;19;20146;-76
2022/11/02 03:02:32;;;;;;;10.97;2.43;;;;;6.50;94586.00;;;;7397787;19;20125;-75
2022/11/02 03:05:24;;;;;;;9.20;2.20;;;;;6.60;94583.00;;;;7399568;19;20137;-75
2022/11/02 03:07:53;;;;;;;8.00;2.13;;;;;6.60;94583.00;;;;7399744;19;20143;-74
2022/11/02 03:11:13;;;;;;;12.13;3.00;;;;;6.50;94583.00;;;;7394808;19;20243;-75
2022/11/02 03:14:06;;;;;;;8.50;3.20;;;;;6.60;94592.00;;;;7398437;19;20158;-75
2022/11/02 03:16:59;;;;;;;6.83;2.00;;;;;6.60;94587.00;;;;7396118;19;20620;-74
2022/11/02 03:20:08;;;;;;;14.53;2.80;;;;;6.70;94586.00;;;;7399052;19;20635;-75
2022/11/02 03:23:13;;;;;;;11.87;2.27;;;;;6.70;94577.00;;;;7395712;19;20201;-74
2022/11/02 03:25:49;;;;;;;10.37;2.30;;;;;6.90;94569.00;;;;7395585;19;20175;-75
2022/11/02 03:28:55;;;;;;;8.53;2.70;;;;;6.80;94577.00;;;;7395602;19;20252;-75
2022/11/02 03:31:53;;;;;;;12.47;2.37;;;;;6.90;94570.00;;;;7398740;19;20172;-75
2022/11/02 03:34:42;;;;;;;6.50;2.00;;;;;6.80;94582.00;;;;7395707;19;20147;-77
2022/11/02 03:37:18;;;;;;;13.57;2.37;;;;;6.90;94588.00;;;;7399100;19;20149;-74
2022/11/02 03:40:06;;;;;;;10.30;2.43;;;;;6.80;94601.00;;;;7399394;19;20215;-74
2022/11/02 03:42:37;;;;;;;7.97;2.30;;;;;6.80;94601.00;;;;7395895;19;20634;-74
2022/11/02 03:45:16;;;;;;;17.67;2.63;;;;;6.80;94603.00;;;;7395600;19;20235;-74
2022/11/02 03:47:49;;;;;;;12.20;2.37;;;;;6.80;94608.00;;;;7399843;19;20521;-74
2022/11/02 03:50:23;;;;;;;8.13;2.70;;;;;6.90;94605.00;;;;7395377;19;20202;-74
2022/11/02 03:53:00;;;;;;;10.97;2.43;;;;;6.70;94611.00;;;;7396026;19;20153;-74
2022/11/02 03:55:45;;;;;;;6.83;2.40;;;;;6.90;94605.00;;;;7400117;19;20125;-74
2022/11/02 03:58:12;;;;;;;9.33;2.10;;;;;6.80;94614.00;;;;7395475;19;20160;-74
2022/11/02 04:00:56;;;;;;;10.70;2.43;;;;;6.80;94615.00;;;;7396445;19;20155;-75
2022/11/02 04:03:24;;;;;;;8.57;2.37;;;;;6.90;94610.00;;;;7398535;19;20171;-75
2022/11/02 04:05:57;;;;;;;12.60;2.83;;;;;6.90;94617.00;;;;7398122;19;20449;-76
2022/11/02 04:08:39;;;;;;;10.80;2.90;;;;;6.80;94619.00;;;;7396223;19;20139;-76
2022/11/02 04:19:49;;;;;;;12.93;2.80;;;;;7.10;94617.00;;;;7399832;19;20125;-76
2022/11/02 04:25:19;;;;;;;10.03;2.53;;;;;7.20;94618.00;;;;7396154;19;20128;-75
2022/11/02 04:28:05;;;;;;;11.10;2.80;;;;;7.30;94627.00;;;;7396103;19;20236;-76
2022/11/02 04:30:33;;;;;;;12.80;2.73;;;;;7.30;94624.00;;;;7395597;19;20147;-75
2022/11/02 04:35:53;;;;;;;7.73;2.10;;;;;7.30;94619.00;;;;7398152;19;20133;-74
2022/11/02 04:38:40;;;;;;;8.87;2.17;;;;;7.40;94626.00;;;;7394022;19;20145;-75
2022/11/02 04:44:18;;;;;;;10.60;2.50;;;;;7.50;94626.00;;;;7398265;19;20136;-76
2022/11/02 04:46:58;;;;;;;10.27;2.10;;;;;7.50;94634.00;;;;7397264;19;20165;-75
2022/11/02 04:49:34;;;;;;;10.80;2.30;;;;;7.50;94626.00;;;;7394675;19;20137;-75
2022/11/02 04:52:09;;;;;;;5.53;1.60;;;;;7.60;94627.00;;;;7394939;19;20136;-75
2022/11/02 04:54:44;;;;;;;8.13;2.17;;;;;7.50;94631.00;;;;7393954;19;20158;-75
2022/11/02 04:57:11;;;;;;;9.70;2.50;;;;;7.50;94631.00;;;;7395347;19;20487;-74
2022/11/02 04:59:39;;;;;;;7.27;1.70;;;;;7.40;94634.00;;;;7396940;19;20473;-74
2022/11/02 05:02:14;;;;;;;8.93;2.50;;;;;7.20;94648.00;;;;7394405;19;20152;-75
2022/11/02 05:04:41;;;;;;;10.40;2.10;;;;;7.00;94642.00;;;;7394351;19;20133;-75
2022/11/02 05:07:11;;;;;;;12.63;2.10;;;;;7.00;94647.00;;;;7395161;19;20482;-76
2022/11/02 05:10:02;;;;;;;10.87;1.83;;;;;6.90;94644.00;;;;7396388;19;20614;-75
2022/11/02 05:12:37;;;;;;;9.90;2.50;;;;;6.90;94645.00;;;;7391413;19;20145;-75
2022/11/02 05:15:12;;;;;;;10.00;2.13;;;;;7.00;94658.00;;;;7387699;19;20147;-74
2022/11/02 05:17:39;;;;;;;10.43;2.80;;;;;7.00;94656.00;;;;7390739;19;20224;-77
2022/11/02 05:20:09;;;;;;;8.20;2.47;;;;;7.00;94658.00;;;;7396146;19;20137;-74
2022/11/02 05:22:43;;;;;;;5.63;2.10;;;;;6.90;94654.00;;;;7393038;19;20140;-74
2022/11/02 05:25:14;;;;;;;9.53;2.30;;;;;7.10;94654.00;;;;7392042;19;20621;-75
2022/11/02 05:30:28;;;;;;;5.83;1.63;;;;;7.20;94663.00;;;;6859887;19;11013635;-75
2022/11/02 05:33:02;;;;;;;8.97;2.00;;;;;7.10;94655.00;;;;7426519;19;20156;-74
2022/11/02 05:35:31;;;;;;;6.87;2.33;;;;;7.00;94660.00;;;;7428161;19;20605;-75
2022/11/02 05:37:58;;;;;;;8.57;2.20;;;;;7.00;94658.00;;;;7427717;19;20593;-74
2022/11/02 05:40:33;;;;;;;8.47;2.10;;;;;6.80;94665.00;;;;7427636;19;20150;-75
2022/11/02 05:43:01;;;;;;;10.93;2.67;;;;;6.70;94669.00;;;;7430399;19;20158;-74
2022/11/02 05:45:31;;;;;;;9.73;2.10;;;;;6.80;94662.00;;;;7430470;19;20650;-74
2022/11/02 05:48:06;;;;;;;6.57;1.70;;;;;6.90;94669.00;;;;7426877;19;20144;-74
2022/11/02 05:50:33;;;;;;;6.30;1.97;;;;;7.00;94671.00;;;;7429047;19;20157;-74
2022/11/02 05:53:01;;;;;;;6.83;2.03;;;;;7.20;94670.00;;;;7429005;19;20494;-75
2022/11/02 05:55:35;;;;;;;6.67;2.30;;;;;7.20;94670.00;;;;7427949;19;20144;-75
2022/11/02 05:58:02;;;;;;;6.00;1.93;;;;;7.90;94683.00;;;;7428163;19;20136;-75
2022/11/02 06:00:30;;;;;;;8.60;1.97;;;;;8.40;94688.00;;;;7427649;19;20136;-74
2022/11/02 06:03:04;;;;;;;9.27;2.00;;;;;8.90;94684.00;;;;7427839;19;20167;-75
2022/11/02 06:05:32;;;;;;;7.93;2.07;;;;;9.30;94685.00;;;;7427458;19;20224;-76
2022/11/02 06:08:00;;;;;;;7.27;1.83;;;;;9.20;94694.00;;;;7426166;19;20603;-74
2022/11/02 06:10:35;;;;;;;4.17;1.77;;;;;9.20;94706.00;;;;7428349;19;20132;-75
2022/11/02 06:13:03;;;;;;;5.17;1.80;;;;;9.10;94716.00;;;;7427795;19;20155;-75
2022/11/02 06:15:32;;;;;;;11.97;2.10;;;;;9.00;94718.00;;;;7427509;19;20140;-74
2022/11/02 06:18:06;;;;;;;13.53;1.80;;;;;8.90;94726.00;;;;7424416;19;20136;-75
2022/11/02 06:20:35;;;;;;;3.97;1.60;;;;;8.90;94722.00;;;;7426886;19;20156;-75
2022/11/02 06:23:02;;;;;;;7.80;2.23;;;;;8.70;94737.00;;;;7428570;19;20140;-76
2022/11/02 06:25:36;;;;;;;9.53;2.27;;;;;8.70;94735.00;;;;7427184;19;20224;-76
2022/11/02 06:28:16;;;;;;;5.00;1.80;;;;;8.70;94737.00;;;;7425232;19;20195;-76
2022/11/02 06:30:51;;;;;;;4.03;1.90;;;;;8.70;94739.00;;;;7426210;19;20187;-76
2022/11/02 06:33:19;;;;;;;9.47;1.63;;;;;8.80;94741.00;;;;7428516;19;20607;-75
2022/11/02 06:35:51;;;;;;;7.73;1.97;;;;;8.80;94741.00;;;;7427608;19;20654;-75
2022/11/02 06:38:26;;;;;;;16.10;2.17;;;;;8.90;94742.00;;;;7425006;19;20602;-75
2022/11/02 06:40:59;;;;;;;5.00;1.67;;;;;8.90;94743.00;;;;7403924;19;20588;-75
2022/11/02 06:43:36;;;;;;;6.20;1.70;;;;;8.90;94745.00;;;;7397050;19;20615;-76
2022/11/02 06:46:05;;;;;;;6.33;1.80;;;;;8.90;94754.00;;;;7397727;19;20137;-75
2022/11/02 06:48:33;;;;;;;5.63;1.90;;;;;9.10;94758.00;;;;7395959;19;20141;-75
2022/11/02 06:51:08;;;;;;;5.93;1.83;;;;;9.10;94761.00;;;;7397086;19;20153;-75
2022/11/02 06:53:36;;;;;;;8.10;2.17;;;;;9.30;94760.00;;;;7395125;19;20141;-76
2022/11/02 06:56:03;;;;;;;10.83;2.13;;;;;9.40;94758.00;;;;7396010;19;20160;-75
2022/11/02 06:58:38;;;;;;;6.10;1.93;;;;;9.40;94761.00;;;;7397528;19;20553;-74
2022/11/02 07:01:07;;;;;;;5.73;2.33;;;;;9.40;94759.00;;;;7397176;19;20176;-75
2022/11/02 07:03:36;;;;;;;9.37;2.13;;;;;9.50;94759.00;;;;7396996;19;20224;-75
2022/11/02 07:06:14;;;;;;;7.83;1.83;;;;;9.70;94765.00;;;;7395247;19;20155;-74
2022/11/02 07:08:41;;;;;;;10.47;2.07;;;;;9.50;94770.00;;;;7396310;19;20160;-74
2022/11/02 07:11:14;;;;;;;7.53;2.13;;;;;9.80;94767.00;;;;7395533;19;20156;-76
2022/11/02 07:13:49;;;;;;;6.83;1.90;;;;;10.00;94771.00;;;;7396412;19;20129;-75
2022/11/02 07:16:17;;;;;;;6.40;1.77;;;;;10.00;94773.00;;;;7398395;19;20175;-76
2022/11/02 07:18:44;;;;;;;4.03;1.77;;;;;10.00;94774.00;;;;7396108;19;20256;-75
2022/11/02 07:21:19;;;;;;;4.10;1.90;;;;;9.90;94775.00;;;;7395847;19;20479;-74
2022/11/02 07:23:47;;;;;;;6.70;1.63;;;;;10.10;94765.00;;;;7397327;19;20480;-75
2022/11/02 07:26:15;;;;;;;6.83;1.90;;;;;10.30;94776.00;;;;7397684;19;20584;-75
2022/11/02 07:32:19;;;;;;;5.03;1.70;;;;;10.70;94785.00;;;;7359579;19;20811;-74
2022/11/02 07:34:54;;;;;;;5.68;1.65;;;;;10.80;94786.00;;;;7396836;19;20144;-74
2022/11/02 07:37:21;;;;;;;5.47;1.67;;;;;10.80;94796.00;;;;7397858;19;20136;-75
2022/11/02 07:39:49;;;;;;;6.17;2.03;;;;;10.80;94800.00;;;;7394117;19;20224;-74
2022/11/02 07:42:23;;;;;;;8.43;1.65;;;;;10.80;94791.00;;;;7394837;19;20504;-75
2022/11/02 07:44:50;;;;;;;6.73;1.33;;;;;10.90;94801.00;;;;7394288;19;20132;-74
2022/11/02 07:47:19;;;;;;;6.80;1.40;;;;;10.90;94783.00;;;;7394461;19;20160;-74
2022/11/02 07:49:53;;;;;;;5.40;1.50;;;;;11.00;94794.00;;;;7393310;19;20137;-76
2022/11/02 07:52:20;;;;;;;5.00;1.70;;;;;11.10;94800.00;;;;7392417;19;20152;-75
2022/11/02 07:54:48;;;;;;;7.47;1.63;;;;;10.90;94799.00;;;;7394995;19;20153;-75
2022/11/02 07:57:22;;;;;;;6.53;1.67;;;;;10.90;94798.00;;;;7395069;19;20175;-75
2022/11/02 07:59:49;;;;;;;7.47;2.15;;;;;11.00;94798.00;;;;7397335;19;20569;-75
2022/11/02 08:02:17;;;;;;;8.73;1.63;;;;;11.30;94805.00;;;;7396005;19;20162;-74
2022/11/02 08:04:51;;;;;;;5.40;1.90;;;;;11.30;94807.00;;;;7394732;19;20144;-75
2022/11/02 08:07:19;;;;;;;11.23;2.10;;;;;11.50;94809.00;;;;7394393;19;20137;-75
2022/11/02 08:09:46;;;;;;;13.75;1.88;;;;;11.40;94814.00;;;;7395269;19;20157;-74
2022/11/02 08:12:21;;;;;;;6.65;1.70;;;;;11.70;94823.00;;;;7395147;19;20124;-76
2022/11/02 08:14:49;;;;;;;6.05;1.88;;;;;11.90;94816.00;;;;7395626;19;20143;-75
2022/11/02 08:17:16;;;;;;;9.30;1.65;;;;;11.70;94809.00;;;;7396268;19;20648;-75
2022/11/02 08:19:51;;;;;;;10.77;1.90;;;;;11.80;94829.00;;;;7393043;19;20586;-74
2022/11/02 08:22:18;;;;;;;14.88;1.98;;;;;11.90;94819.00;;;;7395123;19;20144;-75
2022/11/02 08:24:46;;;;;;;6.22;1.60;;;;;11.90;94821.00;;;;7394871;19;20128;-75
2022/11/02 08:27:20;;;;;;;7.57;2.13;;;;;11.70;94818.00;;;;7394188;19;20578;-75
2022/11/02 08:29:48;;;;;;;8.27;1.85;;;;;12.20;94822.00;;;;7392832;19;20157;-74
2022/11/02 08:32:16;;;;;;;8.45;2.05;;;;;12.20;94819.00;;;;7392782;19;20168;-75
2022/11/02 08:34:56;;;;;;;6.88;1.65;;;;;12.00;94824.00;;;;7396834;19;20129;-75
2022/11/02 08:37:24;;;;;;;9.60;1.80;;;;;11.90;94828.00;;;;7394763;19;20155;-76
2022/11/02 08:39:58;;;;;;;7.75;1.80;;;;;12.00;94832.00;;;;7395403;19;20148;-77
2022/11/02 08:42:26;;;;;;;8.43;2.20;;;;;12.10;94823.00;;;;7396929;19;20129;-76
2022/11/02 08:44:54;;;;;;;6.28;1.98;;;;;12.20;94824.00;;;;7394987;19;20133;-75
2022/11/02 08:47:28;;;;;;;7.57;1.90;;;;;12.30;94833.00;;;;7394124;19;20617;-75
2022/11/02 08:49:56;;;;;;;7.07;1.60;;;;;12.30;94836.00;;;;7392349;19;20144;-75
2022/11/02 08:52:23;;;;;;;11.40;2.22;;;;;12.00;94830.00;;;;7394352;19;20149;-75
2022/11/02 08:55:00;;;;;;;7.93;2.17;;;;;11.80;94842.00;;;;7394394;19;20133;-75
2022/11/02 08:57:29;;;;;;;4.43;1.80;;;;;11.40;94847.00;;;;7393852;19;20139;-75
2022/11/02 08:59:56;;;;;;;14.18;2.03;;;;;11.60;94844.00;;;;7392845;19;20387;-74
2022/11/02 09:02:32;;;;;;;7.32;2.10;;;;;11.90;94842.00;;;;7390390;19;20622;-75
2022/11/02 09:05:00;;;;;;;9.07;1.70;;;;;11.80;94843.00;;;;7392805;19;20137;-75
2022/11/02 09:07:27;;;;;;;5.70;1.95;;;;;11.40;94847.00;;;;7392230;19;20137;-76
2022/11/02 09:10:03;;;;;;;11.27;1.98;;;;;11.20;94835.00;;;;7392192;19;20179;-74
2022/11/02 09:12:31;;;;;;;5.63;1.50;;;;;11.70;94833.00;;;;7393247;19;20152;-75
2022/11/02 09:14:58;;;;;;;7.32;1.92;;;;;11.50;94836.00;;;;7393295;19;20141;-74
2022/11/02 09:17:33;;;;;;;11.63;2.20;;;;;11.80;94833.00;;;;7392787;19;20622;-77
2022/11/02 09:20:01;;;;;;;7.95;2.13;;;;;11.80;94829.00;;;;7391919;19;20603;-75
2022/11/02 09:22:29;;;;;;;4.43;1.70;;;;;12.10;94835.00;;;;7392104;19;20149;-75
2022/11/02 09:25:03;;;;;;;9.77;2.08;;;;;12.40;94839.00;;;;7392833;19;20402;-75
2022/11/02 09:27:31;;;;;;;7.80;1.70;;;;;12.50;94837.00;;;;7391055;19;20488;-75
2022/11/02 09:29:58;;;;;;;5.78;1.92;;;;;12.50;94839.00;;;;7391836;19;20250;-75
2022/11/02 09:32:41;;;;;;;6.75;1.95;;;;;12.70;94841.00;;;;7390326;19;20187;-75
2022/11/02 09:35:11;;;;;;;6.55;1.73;;;;;12.50;94841.00;;;;7393290;19;20478;-76
2022/11/02 09:37:45;;;;;;;6.03;1.52;;;;;12.60;94845.00;;;;7394043;19;20142;-75
2022/11/02 09:40:29;;;;;;;6.30;1.92;;;;;13.00;94847.00;;;;7392460;19;20165;-75
2022/11/02 09:43:31;;;;;;;8.30;1.67;;;;;13.00;94855.00;;;;7393637;19;20591;-76
2022/11/02 09:46:26;;;;;;;5.00;1.35;;;;;13.50;94851.00;;;;7391916;19;20168;-76
2022/11/02 09:49:15;;;;;;;7.38;1.60;;;;;12.50;94852.00;;;;7392371;19;20556;-77
2022/11/02 09:51:48;;;;;;;7.53;1.60;;;;;12.80;94849.00;;;;7392572;19;20133;-77
2022/11/02 09:54:42;;;;;;;5.82;1.65;;;;;13.10;94850.00;;;;7392978;19;20160;-76
2022/11/02 09:57:41;;;;;;;13.40;1.90;;;;;12.60;94853.00;;;;7393782;19;20758;-75
2022/11/02 10:00:17;;;;;;;6.07;1.80;;;;;12.50;94863.00;;;;7391713;19;20164;-75
2022/11/02 10:03:27;;;;;;;8.02;1.80;;;;;12.20;94852.00;;;;7391931;19;20157;-76
2022/11/02 10:06:09;;;;;;;5.85;1.70;;;;;12.10;94856.00;;;;7396073;19;20129;-75
2022/11/02 10:08:50;;;;;;;4.88;1.88;;;;;11.90;94854.00;;;;7396809;19;20169;-75
2022/11/02 10:11:37;;;;;;;4.82;1.48;;;;;11.80;94841.00;;;;7393979;19;20510;-76
2022/11/02 10:14:30;;;;;;;6.43;1.67;;;;;12.20;94851.00;;;;7395889;19;20141;-74
2022/11/02 10:17:14;;;;;;;5.80;1.65;;;;;12.20;94852.00;;;;7403469;19;20609;-75
2022/11/02 10:19:46;;;;;;;7.65;1.80;;;;;12.50;94850.00;;;;7403030;19;20144;-75
2022/11/02 10:22:21;;;;;;;9.18;3.08;;;;;12.90;94852.00;;;;7403584;19;20617;-75
2022/11/02 10:24:51;;;;;;;7.10;1.60;;;;;13.10;94859.00;;;;7403027;19;20137;-75
2022/11/02 10:27:26;;;;;;;6.78;1.65;;;;;13.10;94854.00;;;;7403276;19;20140;-76
2022/11/02 10:30:19;;;;;;;8.45;1.88;;;;;13.80;94845.00;;;;7400757;19;20162;-76
2022/11/02 10:32:55;;;;;;;6.95;2.28;;;;;14.60;94839.00;;;;7397283;19;20176;-75
2022/11/02 10:36:26;;;;;;;9.55;2.17;;;;;15.70;94846.00;;;;7398780;19;20149;-75
2022/11/02 10:39:25;;;;;;;9.60;1.60;;;;;16.10;94835.00;;;;7399984;19;20141;-75
2022/11/02 10:42:13;;;;;;;8.35;2.22;;;;;15.80;94839.00;;;;7396533;19;20141;-76
2022/11/02 10:45:16;;;;;;;8.98;2.00;;;;;15.60;94842.00;;;;7398282;19;20148;-76
2022/11/02 10:48:27;;;;;;;8.25;1.77;;;;;15.20;94846.00;;;;7397330;19;20137;-75
2022/11/02 10:51:16;;;;;;;11.50;2.20;;;;;13.90;94842.00;;;;7395005;19;20626;-74
2022/11/02 10:53:52;;;;;;;8.48;2.17;;;;;13.50;94838.00;;;;7396162;19;20154;-75
2022/11/02 10:56:22;;;;;;;6.43;1.90;;;;;13.70;94843.00;;;;7396756;19;20148;-75
2022/11/02 10:59:14;;;;;;;8.63;2.33;;;;;14.60;94822.00;;;;7397724;19;20670;-75
2022/11/02 11:01:56;;;;;;;9.65;1.98;;;;;14.90;94827.00;;;;7397073;19;20469;-75
2022/11/02 11:04:29;;;;;;;9.30;2.25;;;;;15.70;94821.00;;;;7398094;19;20132;-76
2022/11/02 11:07:22;;;;;;;7.55;2.25;;;;;16.10;94822.00;;;;7396232;19;20133;-75
2022/11/02 11:09:54;;;;;;;9.45;1.80;;;;;17.00;94831.00;;;;7397032;19;20631;-75
2022/11/02 11:12:39;;;;;;;10.35;2.22;;;;;16.10;94830.00;;;;7394693;19;20206;-76
2022/11/02 11:15:22;;;;;;;6.63;1.88;;;;;15.50;94827.00;;;;7398420;19;20128;-75
2022/11/02 11:18:16;;;;;;;12.18;2.15;;;;;15.40;94850.00;;;;7397476;19;20129;-75
2022/11/02 11:21:05;;;;;;;7.97;2.10;;;;;14.40;94828.00;;;;7394901;19;20145;-75
2022/11/02 11:23:38;;;;;;;8.82;1.80;;;;;15.00;94857.00;;;;7393063;19;20140;-76
2022/11/02 11:26:25;;;;;;;11.38;2.20;;;;;14.50;94863.00;;;;7397740;19;20639;-75
2022/11/02 11:29:01;;;;;;;11.68;2.38;;;;;13.60;94850.00;;;;7396111;19;20531;-76
2022/11/02 11:31:30;;;;;;;6.20;2.05;;;;;13.00;94863.00;;;;7395113;19;20184;-74
2022/11/02 11:34:00;;;;;;;11.43;1.90;;;;;12.50;94854.00;;;;7392827;19;20232;-75
2022/11/02 11:36:35;;;;;;;8.38;2.28;;;;;12.20;94857.00;;;;7396509;19;20129;-75
2022/11/02 11:39:21;;;;;;;8.55;1.92;;;;;12.30;94833.00;;;;7396695;19;20170;-75
2022/11/02 11:41:58;;;;;;;10.80;2.28;;;;;13.30;94818.00;;;;7395231;19;20164;-75
2022/11/02 11:44:33;;;;;;;10.40;2.67;;;;;14.50;94815.00;;;;7395924;19;20492;-74
2022/11/02 11:47:06;;;;;;;10.68;2.63;;;;;15.60;94825.00;;;;7397638;19;20132;-75
2022/11/02 11:49:39;;;;;;;11.02;2.47;;;;;16.40;94800.00;;;;7393190;19;20156;-75
2022/11/02 11:52:34;;;;;;;6.93;2.08;;;;;16.50;94809.00;;;;7395743;19;20159;-75
2022/11/02 11:55:23;;;;;;;8.15;2.47;;;;;16.90;94795.00;;;;7393087;19;20137;-75
2022/11/02 11:58:21;;;;;;;8.73;2.67;;;;;17.30;94800.00;;;;7394705;19;20153;-75
2022/11/02 12:01:04;;;;;;;8.98;1.92;;;;;17.50;94790.00;;;;7392800;19;20177;-76
2022/11/02 12:03:56;;;;;;;7.10;2.17;;;;;18.00;94789.00;;;;7393254;19;20160;-73
2022/11/02 12:06:35;;;;;;;5.45;2.13;;;;;17.20;94786.00;;;;7394069;19;20165;-75
2022/11/02 12:09:31;;;;;;;7.47;2.10;;;;;17.60;94782.00;;;;7394604;19;20615;-75
2022/11/02 12:12:07;;;;;;;10.95;2.10;;;;;19.10;94773.00;;;;7394993;19;20133;-75
2022/11/02 12:14:47;;;;;;;6.28;1.80;;;;;18.50;94775.00;;;;7396959;19;20159;-76
2022/11/02 12:17:51;;;;;;;7.38;1.80;;;;;18.30;94776.00;;;;7395498;19;20611;-73
2022/11/02 12:20:52;;;;;;;4.03;1.60;;;;;19.10;94768.00;;;;7392890;19;20141;-75
2022/11/02 12:23:50;;;;;;;6.63;2.40;;;;;18.80;94774.00;;;;7393562;19;20148;-77
2022/11/02 12:26:44;;;;;;;8.02;1.88;;;;;20.30;94768.00;;;;7394107;19;20153;-74
2022/11/02 12:29:36;;;;;;;6.45;1.83;;;;;19.40;94774.00;;;;7395283;19;20591;-77
2022/11/02 12:32:39;;;;;;;5.13;1.85;;;;;18.40;94772.00;;;;7391693;19;20149;-77
2022/11/02 12:35:16;;;;;;;6.18;1.77;;;;;18.50;94763.00;;;;7394137;19;20133;-75
2022/11/02 12:38:06;;;;;;;7.47;1.88;;;;;17.10;94771.00;;;;7394774;19;20144;-76
2022/11/02 12:41:01;;;;;;;4.78;1.52;;;;;17.80;94773.00;;;;7394039;19;20599;-76
2022/11/02 12:43:43;;;;;;;5.47;1.85;;;;;17.60;94774.00;;;;7393606;19;20168;-76
2022/11/02 12:46:20;;;;;;;4.47;1.60;;;;;18.20;94780.00;;;;7395383;19;20172;-76
2022/11/02 12:49:24;;;;;;;4.20;1.58;;;;;18.50;94777.00;;;;7391711;19;20722;-76
2022/11/02 12:52:11;;;;;;;4.45;2.20;;;;;17.90;94769.00;;;;7395411;19;20499;-75
2022/11/02 12:54:56;;;;;;;5.72;1.73;;;;;17.90;94768.00;;;;7392569;19;20145;-74
2022/11/02 12:57:27;;;;;;;5.10;1.85;;;;;17.90;94764.00;;;;7395445;19;20148;-74
2022/11/02 13:00:06;;;;;;;5.05;2.13;;;;;18.40;94772.00;;;;7392147;19;20156;-74
2022/11/02 13:03:05;;;;;;;4.85;2.15;;;;;18.60;94774.00;;;;7392214;19;20152;-74
2022/11/02 13:05:46;;;;;;;8.68;2.47;;;;;18.20;94771.00;;;;7394466;19;20144;-74
2022/11/02 13:08:21;;;;;;;5.65;1.73;;;;;17.60;94773.00;;;;7394670;19;20128;-74
2022/11/02 13:11:00;;;;;;;6.13;2.00;;;;;17.90;94755.00;;;;7393557;19;20133;-74
2022/11/02 13:13:43;;;;;;;6.90;2.10;;;;;17.50;94760.00;;;;7394849;19;20147;-73
2022/11/02 13:16:24;;;;;;;4.82;1.67;;;;;17.70;94769.00;;;;7394683;19;20475;-73
2022/11/02 13:18:55;;;;;;;6.93;1.35;;;;;16.50;94772.00;;;;7394603;19;20203;-75
2022/11/02 13:21:36;;;;;;;10.52;1.85;;;;;16.60;94771.00;;;;7394774;19;20124;-74
2022/11/02 13:24:17;;;;;;;8.00;2.10;;;;;16.90;94760.00;;;;7391965;19;20649;-76
2022/11/02 13:27:04;;;;;;;6.28;1.70;;;;;16.50;94778.00;;;;7392499;19;20674;-76
2022/11/02 13:29:56;;;;;;;8.35;2.65;;;;;15.40;94773.00;;;;7391704;19;20145;-76
2022/11/02 13:32:49;;;;;;;6.40;2.00;;;;;15.80;94780.00;;;;7393292;19;20652;-76